Time;durP1;ratioP1;P1;durP2;ratioP2;P2;SDS_P1;SDS_P2;PMS_P1;PMS_P2;Temp;Humidity;BMP_temperature;BMP_pressure;BME280_temperature;BME280_humidity;BME280_pressure;Samples;Min_cycle;Max_cycle;Signal;HPM_P1;HPM_P2
2022/12/26 00:00:12;;;;;;;2.45;1.17;;;;;;;-1.40;67.57;146984.13;5055715;28;20210;-63
2022/12/26 00:02:38;;;;;;;3.42;1.40;;;;;;;-1.46;66.89;146968.88;5047856;28;20029;-62
2022/12/26 00:05:04;;;;;;;1.98;1.35;;;;;;;-1.58;66.09;146939.66;5063940;28;20104;-62
2022/12/26 00:07:29;;;;;;;2.03;1.30;;;;;;;-1.54;66.62;146947.28;5060460;28;20032;-63
2022/12/26 00:09:55;;;;;;;2.25;1.20;;;;;;;-1.54;66.62;146947.28;5058016;28;20029;-61
2022/12/26 00:12:20;;;;;;;4.80;1.20;;;;;;;-1.49;66.68;146960.00;5054144;28;20032;-62
2022/12/26 00:14:46;;;;;;;3.28;1.20;;;;;;;-1.49;67.67;146960.00;5047168;28;20045;-63
2022/12/26 00:17:11;;;;;;;3.80;1.35;;;;;;;-1.41;68.66;146980.28;5063933;28;20150;-63
2022/12/26 00:19:37;;;;;;;2.08;1.13;;;;;;;-1.32;68.16;147001.91;5043713;28;20026;-64
2022/12/26 00:22:03;;;;;;;2.47;1.50;;;;;;;-1.35;68.57;146995.53;5043530;28;20213;-63
2022/12/26 00:24:29;;;;;;;4.28;1.33;;;;;;;-1.32;66.46;147001.91;5053970;28;20175;-63
2022/12/26 00:26:55;;;;;;;2.85;1.50;;;;;;;-1.22;68.00;147028.56;5057692;28;20052;-63
2022/12/26 00:29:21;;;;;;;1.88;1.27;;;;;;;-1.27;67.63;147015.88;5062384;28;20024;-62
2022/12/26 00:31:48;;;;;;;1.65;1.20;;;;;;;-1.43;67.45;146976.47;5043396;28;20048;-63
2022/12/26 00:34:14;;;;;;;2.33;1.40;;;;;;;-1.34;67.53;146998.09;5060070;28;20044;-62
2022/12/26 00:36:40;;;;;;;1.65;1.17;;;;;;;-1.31;68.10;147004.41;5051616;28;20033;-62
2022/12/26 00:39:06;;;;;;;1.25;1.13;;;;;;;-1.30;68.08;147008.22;5043377;28;20064;-64
2022/12/26 00:41:31;;;;;;;1.58;1.30;;;;;;;-1.28;67.60;147013.31;5045955;28;20356;-63
2022/12/26 00:43:58;;;;;;;2.65;1.30;;;;;;;-1.46;66.84;146967.59;5063408;28;20139;-63
2022/12/26 00:46:24;;;;;;;1.75;1.10;;;;;;;-1.55;66.54;146946.03;5045436;28;20033;-63
2022/12/26 00:48:50;;;;;;;2.15;1.30;;;;;;;-1.43;66.93;146976.47;5056387;28;20024;-63
2022/12/26 00:51:16;;;;;;;1.95;1.10;;;;;;;-1.48;67.60;146962.50;5054665;28;20045;-63
2022/12/26 00:53:42;;;;;;;1.77;1.40;;;;;;;-1.44;68.10;146972.66;5046944;28;20029;-62
2022/12/26 00:56:08;;;;;;;1.75;1.15;;;;;;;-1.44;67.43;146972.66;5063316;28;20029;-62
2022/12/26 00:58:35;;;;;;;3.50;1.90;;;;;;;-1.50;66.98;146958.69;5043714;28;20033;-63
2022/12/26 01:01:13;;;;;;;1.80;1.40;;;;;;;-1.43;68.15;146975.22;5057688;28;20025;-62
2022/12/26 01:03:39;;;;;;;2.45;1.40;;;;;;;-1.44;67.35;146973.97;5051394;28;20274;-62
2022/12/26 01:06:05;;;;;;;2.42;1.40;;;;;;;-1.46;68.89;146968.88;5043165;28;20089;-62
2022/12/26 01:08:30;;;;;;;5.40;1.30;;;;;;;-1.46;68.63;146967.59;5045103;28;20017;-62
2022/12/26 01:10:56;;;;;;;2.35;1.30;;;;;;;-1.46;68.85;146967.59;5062918;28;20096;-63
2022/12/26 01:13:22;;;;;;;2.53;1.00;;;;;;;-1.54;67.67;146948.53;5044499;28;20032;-62
2022/12/26 01:15:51;;;;;;;1.88;0.93;;;;;;;-1.45;66.82;146970.16;5055446;28;20045;-64
2022/12/26 01:18:18;;;;;;;2.05;1.20;;;;;;;-1.42;68.68;146977.78;5054726;28;20025;-63
2022/12/26 01:20:43;;;;;;;1.58;1.10;;;;;;;-1.40;66.78;146984.13;5045771;28;20282;-63
2022/12/26 01:23:09;;;;;;;2.72;0.93;;;;;;;-1.39;66.66;146986.63;5050103;28;20048;-64
2022/12/26 01:25:35;;;;;;;2.70;1.30;;;;;;;-1.54;65.45;146947.28;5061977;28;20329;-63
2022/12/26 01:28:00;;;;;;;1.75;1.05;;;;;;;-1.56;66.59;146944.72;5057378;28;20024;-63
2022/12/26 01:30:26;;;;;;;1.83;1.38;;;;;;;-1.54;67.03;146947.28;5053123;28;20041;-63
2022/12/26 01:32:51;;;;;;;2.28;1.20;;;;;;;-1.70;66.78;146909.19;5051464;28;20067;-64
2022/12/26 01:35:17;;;;;;;2.22;1.45;;;;;;;-1.59;67.92;146937.13;5044344;28;20128;-63
2022/12/26 01:37:42;;;;;;;2.08;1.00;;;;;;;-1.48;67.70;146962.50;5066819;28;20025;-64
2022/12/26 01:40:10;;;;;;;1.73;0.95;;;;;;;-1.60;67.22;146934.56;5051323;28;20256;-64
2022/12/26 01:42:40;;;;;;;1.65;0.70;;;;;;;-1.56;67.05;146944.72;5057547;28;20037;-63
2022/12/26 01:45:27;;;;;;;0.90;0.90;;;;;;;-1.61;67.34;146930.75;5066399;28;20248;-64
2022/12/26 01:47:57;;;;;;;1.52;0.95;;;;;;;-1.61;68.46;146932.06;5061715;28;20064;-64
2022/12/26 01:51:00;;;;;;;2.25;0.88;;;;;;;-1.52;68.88;146952.38;5047074;28;20025;-65
2022/12/26 01:53:31;;;;;;;1.50;1.00;;;;;;;-1.55;69.50;146946.03;5065394;28;20028;-64
2022/12/26 01:56:02;;;;;;;2.35;1.02;;;;;;;-1.86;67.36;146869.84;5046534;28;20025;-64
2022/12/26 01:58:36;;;;;;;1.40;0.80;;;;;;;-1.63;67.57;146926.97;5046337;28;20029;-64
2022/12/26 02:01:05;;;;;;;0.80;0.75;;;;;;;-1.74;67.54;146899.03;5060349;28;20348;-64
2022/12/26 02:06:16;;;;;;;0.98;0.88;;;;;;;-1.56;67.73;146943.47;5046352;28;20036;-63
2022/12/26 02:08:44;;;;;;;1.35;0.90;;;;;;;-1.84;67.57;146873.66;5049381;28;20101;-64
2022/12/26 02:11:41;;;;;;;1.70;1.10;;;;;;;-1.59;68.93;146935.88;5059305;28;20313;-63
2022/12/26 02:14:07;;;;;;;1.70;1.00;;;;;;;-1.55;68.09;146946.03;5046226;28;20409;-63
2022/12/26 02:16:35;;;;;;;1.45;0.80;;;;;;;-1.56;67.47;146943.47;5064877;28;20044;-63
2022/12/26 02:19:01;;;;;;;1.42;0.80;;;;;;;-1.39;67.89;146985.38;5051978;28;20072;-64
2022/12/26 02:22:02;;;;;;;1.40;0.82;;;;;;;-1.42;67.21;146977.78;5056366;28;20095;-63
2022/12/26 02:24:36;;;;;;;1.50;1.00;;;;;;;-1.36;70.03;146993.00;5010454;28;20048;-63
2022/12/26 02:27:04;;;;;;;2.13;0.88;;;;;;;-1.48;67.45;146962.50;5050530;28;20059;-63
2022/12/26 02:29:51;;;;;;;2.00;0.98;;;;;;;-1.47;65.86;146966.34;5047228;28;20030;-62
2022/12/26 02:32:55;;;;;;;1.63;1.20;;;;;;;-1.62;66.31;146929.50;5065734;28;20047;-64
2022/12/26 02:36:08;;;;;;;2.03;1.10;;;;;;;-1.59;69.86;146935.88;5045867;28;20034;-63
2022/12/26 02:39:01;;;;;;;1.45;1.08;;;;;;;-1.52;68.66;146952.38;5063825;28;20048;-63
2022/12/26 02:41:32;;;;;;;1.63;1.08;;;;;;;-1.76;67.31;146895.22;5046503;28;20036;-62
2022/12/26 02:47:13;;;;;;;1.35;1.00;;;;;;;-1.76;68.00;146893.97;5009006;28;20069;-64
2022/12/26 03:15:07;;;;;;;1.25;1.15;;;;;;;-1.97;69.90;146843.19;5064678;28;20136;-62
2022/12/26 03:17:36;;;;;;;2.10;1.20;;;;;;;-1.79;69.73;146886.38;5064732;28;20039;-63
2022/12/26 03:20:03;;;;;;;2.63;1.38;;;;;;;-1.80;69.23;146883.81;5064995;28;20046;-64
2022/12/26 03:22:33;;;;;;;2.95;1.20;;;;;;;-1.73;69.24;146901.59;5047467;28;20028;-62
2022/12/26 03:27:47;;;;;;;2.00;1.10;;;;;;;-1.79;69.05;146887.63;5052014;28;20036;-64
2022/12/26 03:32:57;;;;;;;1.45;0.95;;;;;;;-1.68;68.73;146913.00;5044544;28;20074;-63
2022/12/26 03:35:25;;;;;;;4.32;1.25;;;;;;;-1.68;68.31;146913.00;5044831;28;20090;-63
2022/12/26 03:38:18;;;;;;;2.10;1.20;;;;;;;-1.58;70.25;146939.66;5046794;28;20214;-63
2022/12/26 04:19:26;;;;;;;2.25;1.48;;;;;;;-1.61;68.63;146932.06;5055264;28;20045;-65
2022/12/26 04:45:13;;;;;;;1.95;1.42;;;;;;;-1.68;70.39;146913.00;5057463;28;20135;-66
2022/12/26 04:50:10;;;;;;;2.20;1.45;;;;;;;-1.57;70.36;146942.22;5044661;28;20124;-65
2022/12/26 04:50:25;;;;;;;2.20;1.50;;;;;;;-1.52;70.48;146953.63;5063252;28;20028;-64
2022/12/26 04:52:59;;;;;;;2.47;1.50;;;;;;;-1.68;68.74;146913.00;5043383;28;20025;-66
2022/12/26 04:55:31;;;;;;;2.92;1.67;;;;;;;-1.84;68.36;146873.66;5059105;28;20033;-67
2022/12/26 04:57:57;;;;;;;4.30;1.75;;;;;;;-2.08;67.53;146816.56;5051014;28;20040;-62
2022/12/26 05:00:24;;;;;;;2.28;1.60;;;;;;;-1.96;69.53;146844.47;5050022;28;20033;-64
2022/12/26 05:11:15;;;;;;;3.95;1.60;;;;;;;-2.61;69.56;146684.59;5046029;28;20036;-63
2022/12/26 05:13:41;;;;;;;2.63;1.45;;;;;;;-2.66;69.22;146673.19;5047194;28;20041;-64
2022/12/26 05:29:52;;;;;;;1.90;1.40;;;;;;;-2.00;68.66;146834.31;5063750;28;21718;-64
2022/12/26 05:35:01;;;;;;;2.90;1.63;;;;;;;-2.06;69.67;146819.09;5046469;28;20132;-63
2022/12/26 05:37:28;;;;;;;3.05;1.50;;;;;;;-2.08;68.35;146815.31;5063015;28;20099;-63
2022/12/26 05:39:53;;;;;;;2.45;1.70;;;;;;;-2.09;68.22;146812.75;5055093;28;20025;-63
2022/12/26 05:42:19;;;;;;;3.88;1.50;;;;;;;-2.04;67.72;146825.41;5052952;28;20029;-63
2022/12/26 05:44:46;;;;;;;2.40;1.67;;;;;;;-2.36;68.69;146745.50;5064786;28;20025;-62
2022/12/26 05:47:11;;;;;;;4.78;2.00;;;;;;;-2.27;69.13;146769.63;5046334;28;20041;-64
2022/12/26 05:49:37;;;;;;;2.33;1.70;;;;;;;-2.11;69.30;146807.66;5078821;28;20280;-63
2022/12/26 05:52:02;;;;;;;3.30;1.90;;;;;;;-2.17;68.58;146793.69;5047415;28;20021;-63
2022/12/26 05:54:28;;;;;;;5.75;2.83;;;;;;;-2.36;69.38;146746.75;5053706;28;20069;-62
2022/12/26 05:56:53;;;;;;;2.70;1.90;;;;;;;-2.35;69.78;146748.00;5062992;28;20404;-62
2022/12/26 05:59:19;;;;;;;4.45;1.95;;;;;;;-2.31;69.63;146758.16;5046405;28;20267;-63
2022/12/26 06:01:44;;;;;;;1.67;1.58;;;;;;;-2.53;69.00;146703.63;5046341;28;20029;-63
2022/12/26 06:04:10;;;;;;;3.67;1.80;;;;;;;-2.51;69.48;146708.69;5059323;28;20226;-61
2022/12/26 06:06:35;;;;;;;4.47;1.85;;;;;;;-2.33;69.81;146754.38;5057616;28;20041;-63
2022/12/26 06:09:01;;;;;;;3.78;1.80;;;;;;;-2.58;70.01;146690.94;5049589;28;20025;-64
2022/12/26 06:11:27;;;;;;;3.72;1.85;;;;;;;-2.66;69.89;146671.94;5066289;28;20036;-62
2022/12/26 06:13:53;;;;;;;4.60;1.75;;;;;;;-2.65;69.84;146675.72;5047101;28;20321;-62
2022/12/26 06:16:19;;;;;;;4.13;2.10;;;;;;;-2.63;70.57;146679.53;5060353;28;20137;-62
2022/12/26 06:18:45;;;;;;;3.67;1.80;;;;;;;-2.88;70.14;146618.66;5056185;28;20025;-63
2022/12/26 06:21:14;;;;;;;5.68;2.03;;;;;;;-2.93;70.12;146604.72;5057708;28;20341;-63
2022/12/26 06:23:40;;;;;;;3.25;1.67;;;;;;;-2.83;70.94;146631.31;5045677;28;20095;-64
2022/12/26 06:26:07;;;;;;;4.05;1.95;;;;;;;-2.66;70.58;146673.19;5045441;28;20041;-63
2022/12/26 06:28:33;;;;;;;3.17;1.80;;;;;;;-2.66;70.22;146673.19;5058986;28;20033;-63
2022/12/26 06:31:13;;;;;;;4.43;2.00;;;;;;;-2.77;70.27;146645.28;5075566;28;20069;-63
2022/12/26 06:33:39;;;;;;;2.63;1.92;;;;;;;-2.67;70.51;146670.63;5057004;28;20037;-62
2022/12/26 06:36:16;;;;;;;2.17;1.63;;;;;;;-2.73;70.17;146654.19;5045216;28;20079;-63
2022/12/26 06:38:42;;;;;;;4.55;2.30;;;;;;;-2.71;70.15;146659.22;5046148;28;20026;-63
2022/12/26 06:41:10;;;;;;;3.83;1.88;;;;;;;-2.69;70.18;146665.56;5065415;28;20040;-64
2022/12/26 06:43:36;;;;;;;3.63;1.92;;;;;;;-2.60;70.95;146687.13;5049300;28;20349;-64
2022/12/26 06:46:03;;;;;;;4.78;2.40;;;;;;;-2.70;69.87;146661.78;5056851;28;20143;-62
2022/12/26 06:48:30;;;;;;;5.75;2.58;;;;;;;-2.50;70.88;146711.25;5058235;28;20329;-62
2022/12/26 06:50:56;;;;;;;5.88;2.40;;;;;;;-2.47;69.60;146718.84;5047774;28;20199;-62
2022/12/26 06:53:22;;;;;;;5.40;2.50;;;;;;;-2.61;70.25;146684.59;5065148;28;20036;-61
2022/12/26 06:55:49;;;;;;;3.00;1.75;;;;;;;-2.51;70.50;146708.69;5047031;28;20025;-62
2022/12/26 06:58:15;;;;;;;4.03;1.88;;;;;;;-2.39;70.27;146739.16;5058468;28;20025;-62
2022/12/26 07:00:41;;;;;;;4.75;1.90;;;;;;;-2.37;70.08;146742.97;5056287;28;20067;-61
2022/12/26 07:03:06;;;;;;;3.08;1.80;;;;;;;-2.26;70.99;146772.13;5060461;28;20088;-63
2022/12/26 07:05:35;;;;;;;4.30;2.20;;;;;;;-2.55;70.16;146699.84;5054926;28;20029;-64
2022/12/26 07:08:00;;;;;;;2.67;1.73;;;;;;;-2.52;70.52;146706.13;5045380;28;20052;-62
2022/12/26 07:10:26;;;;;;;3.47;2.05;;;;;;;-2.62;69.46;146683.34;5044948;28;20025;-64
2022/12/26 07:12:51;;;;;;;5.40;1.80;;;;;;;-2.72;70.86;146657.97;5054931;28;20025;-62
2022/12/26 07:15:17;;;;;;;3.42;1.60;;;;;;;-2.70;70.77;146663.03;5059628;28;20061;-62
2022/12/26 07:17:43;;;;;;;4.70;1.95;;;;;;;-2.91;71.17;146609.78;5045090;28;20041;-62
2022/12/26 07:20:09;;;;;;;3.05;1.60;;;;;;;-3.25;70.98;146526.09;5064931;28;20037;-63
2022/12/26 07:22:34;;;;;;;3.33;1.70;;;;;;;-2.88;71.81;146617.38;5052648;28;20055;-62
2022/12/26 07:25:00;;;;;;;2.70;1.80;;;;;;;-2.86;71.38;146623.72;5053630;28;20025;-62
2022/12/26 07:27:25;;;;;;;2.10;1.70;;;;;;;-3.04;71.17;146579.31;5048724;28;20063;-62
2022/12/26 07:29:51;;;;;;;3.65;1.67;;;;;;;-2.63;71.05;146680.78;5044708;28;20048;-63
2022/12/26 07:32:17;;;;;;;2.92;1.48;;;;;;;-2.88;70.53;146617.38;5043954;28;20241;-63
2022/12/26 07:34:42;;;;;;;4.10;1.80;;;;;;;-2.87;72.25;146619.91;5044288;28;20045;-61
2022/12/26 07:37:08;;;;;;;6.32;1.92;;;;;;;-2.96;71.19;146599.63;5071969;28;20353;-62
2022/12/26 07:39:36;;;;;;;2.33;1.58;;;;;;;-2.92;71.19;146608.53;5064419;28;20059;-66
2022/12/26 07:42:02;;;;;;;6.28;1.98;;;;;;;-2.92;71.72;146608.53;5053186;28;20221;-63
2022/12/26 07:44:30;;;;;;;2.80;2.03;;;;;;;-2.86;72.42;146622.47;5064505;28;20044;-62
2022/12/26 07:46:56;;;;;;;2.08;1.73;;;;;;;-2.87;71.99;146621.19;5045567;28;20029;-63
2022/12/26 07:49:22;;;;;;;5.47;1.95;;;;;;;-2.77;71.39;146646.53;5058067;28;20288;-63
2022/12/26 07:51:48;;;;;;;2.63;1.95;;;;;;;-2.77;70.95;146645.28;5055241;28;20029;-63
2022/12/26 07:54:14;;;;;;;2.30;1.80;;;;;;;-2.61;71.81;146684.59;5043959;28;20032;-62
2022/12/26 07:56:40;;;;;;;2.38;1.77;;;;;;;-2.61;70.75;146685.88;5044469;28;20021;-63
2022/12/26 07:59:07;;;;;;;4.05;2.30;;;;;;;-2.76;71.78;146647.81;5063931;28;20021;-62
2022/12/26 08:01:32;;;;;;;2.92;2.15;;;;;;;-2.55;72.04;146698.53;5048998;28;20021;-64
2022/12/26 08:03:58;;;;;;;3.50;1.98;;;;;;;-3.09;70.96;146566.69;5054312;28;20025;-63
2022/12/26 08:06:24;;;;;;;3.60;2.03;;;;;;;-2.96;72.04;146598.38;5058243;28;20179;-63
2022/12/26 08:08:50;;;;;;;3.47;2.17;;;;;;;-3.03;72.24;146581.88;5044838;28;20223;-62
2022/12/26 08:11:22;;;;;;;2.88;2.00;;;;;;;-3.15;71.58;146551.44;5062597;28;20172;-63
2022/12/26 08:13:48;;;;;;;2.78;1.80;;;;;;;-2.95;70.79;146602.19;5047716;28;20029;-62
2022/12/26 08:16:15;;;;;;;5.75;2.22;;;;;;;-2.72;71.26;146656.69;5051541;28;20752;-63
2022/12/26 08:18:40;;;;;;;4.03;2.38;;;;;;;-2.95;71.51;146600.88;5055923;28;20102;-63
2022/12/26 08:21:08;;;;;;;4.43;2.10;;;;;;;-2.91;71.42;146611.03;5059844;28;20049;-62
2022/12/26 08:23:34;;;;;;;9.98;2.75;;;;;;;-2.81;71.44;146635.13;5043447;28;20747;-63
2022/12/26 08:26:05;;;;;;;3.25;2.25;;;;;;;-2.97;71.70;146597.06;5061812;28;20036;-63
2022/12/26 08:28:30;;;;;;;3.15;2.30;;;;;;;-2.79;72.01;146641.47;5048374;28;20040;-63
2022/12/26 08:30:56;;;;;;;3.67;2.40;;;;;;;-2.81;70.51;146636.44;5053146;28;20021;-63
2022/12/26 08:33:21;;;;;;;3.30;2.53;;;;;;;-2.93;71.94;146605.97;5058297;28;20064;-63
2022/12/26 08:35:47;;;;;;;4.40;2.67;;;;;;;-2.73;71.73;146655.44;5044071;28;20340;-62
2022/12/26 08:38:12;;;;;;;4.55;2.22;;;;;;;-2.57;70.52;146693.50;5062927;28;20017;-63
2022/12/26 08:40:38;;;;;;;3.60;2.75;;;;;;;-2.64;70.40;146678.28;5047664;28;20025;-63
2022/12/26 08:43:04;;;;;;;3.17;2.38;;;;;;;-2.89;71.38;146614.81;5043154;28;20021;-62
2022/12/26 08:45:30;;;;;;;3.97;2.50;;;;;;;-3.01;70.84;146585.69;5049472;28;20028;-62
2022/12/26 08:47:56;;;;;;;8.65;2.58;;;;;;;-2.96;71.72;146598.38;5061651;28;20017;-63
2022/12/26 08:50:22;;;;;;;3.63;2.53;;;;;;;-2.60;72.21;146687.13;5043284;28;20028;-63
2022/12/26 08:52:48;;;;;;;3.92;2.80;;;;;;;-2.61;72.01;146685.88;5060139;28;20024;-63
2022/12/26 08:55:13;;;;;;;6.20;2.78;;;;;;;-2.71;70.95;146659.22;5060235;28;20112;-63
2022/12/26 08:57:39;;;;;;;4.57;2.30;;;;;;;-2.68;70.91;146666.84;5055779;28;20037;-63
2022/12/26 09:00:06;;;;;;;4.80;2.50;;;;;;;-2.67;71.98;146669.38;5042930;28;20032;-62
2022/12/26 09:02:32;;;;;;;3.10;2.47;;;;;;;-2.72;70.66;146657.97;5042902;28;20022;-62
2022/12/26 09:04:57;;;;;;;6.45;2.70;;;;;;;-2.88;71.05;146617.38;5042900;28;20092;-63
2022/12/26 09:07:23;;;;;;;5.38;2.92;;;;;;;-2.95;71.74;146602.19;5056041;28;20040;-63
2022/12/26 09:09:49;;;;;;;3.13;2.30;;;;;;;-3.13;71.71;146556.53;5054253;28;20052;-62
2022/12/26 09:12:14;;;;;;;3.60;2.42;;;;;;;-3.08;71.60;146567.94;5046718;28;20318;-62
2022/12/26 09:14:40;;;;;;;4.40;2.40;;;;;;;-3.09;71.41;146566.69;5062783;28;20068;-62
2022/12/26 09:17:05;;;;;;;4.13;2.90;;;;;;;-2.89;72.28;146616.13;5043571;28;20048;-63
2022/12/26 09:19:31;;;;;;;3.28;2.65;;;;;;;-2.92;72.34;146607.22;5057110;28;20096;-63
2022/12/26 09:24:42;;;;;;;3.65;2.90;;;;;;;-2.46;72.94;146721.41;5042331;28;20041;-63
2022/12/26 09:27:08;;;;;;;4.00;3.30;;;;;;;-2.42;70.94;146731.56;5043739;28;20225;-63
2022/12/26 09:29:36;;;;;;;6.03;3.13;;;;;;;-2.68;69.72;146668.13;5042877;28;20044;-62
2022/12/26 09:32:02;;;;;;;5.47;2.70;;;;;;;-3.06;70.90;146574.28;5061063;28;20025;-62
2022/12/26 09:34:28;;;;;;;8.27;3.03;;;;;;;-2.88;70.97;146617.38;5049024;28;20036;-63
2022/12/26 09:36:54;;;;;;;3.10;2.50;;;;;;;-2.93;71.43;146605.97;5051818;28;20021;-62
2022/12/26 09:39:19;;;;;;;4.88;3.00;;;;;;;-2.78;70.75;146642.72;5058526;28;20243;-63
2022/12/26 09:41:47;;;;;;;3.20;2.60;;;;;;;-2.65;71.35;146675.72;5042778;28;20037;-62
2022/12/26 09:44:34;;;;;;;5.72;3.20;;;;;;;-2.87;69.95;146621.19;5062250;28;20095;-62
2022/12/26 09:47:15;;;;;;;3.95;3.03;;;;;;;-3.13;70.23;146557.78;5044441;28;20088;-63
2022/12/26 09:49:54;;;;;;;3.83;2.70;;;;;;;-3.05;69.42;146576.81;5058227;28;20092;-63
2022/12/26 09:52:26;;;;;;;3.72;2.90;;;;;;;-2.74;70.79;146652.88;5050324;28;20089;-63
2022/12/26 09:55:01;;;;;;;5.45;3.28;;;;;;;-2.47;70.70;146718.84;5051037;28;20092;-63
2022/12/26 09:57:43;;;;;;;4.57;3.22;;;;;;;-2.44;69.90;146726.44;5060575;28;20170;-64
2022/12/26 10:00:20;;;;;;;5.43;3.60;;;;;;;-2.27;70.14;146769.63;5048766;28;20036;-63
2022/12/26 10:02:53;;;;;;;6.75;3.55;;;;;;;-2.45;68.56;146725.19;5066502;28;20025;-63
2022/12/26 10:05:22;;;;;;;4.97;3.55;;;;;;;-2.22;69.94;146779.72;5046450;28;20028;-62
2022/12/26 10:07:57;;;;;;;5.20;3.30;;;;;;;-2.25;69.46;146773.44;5062197;28;20233;-63
2022/12/26 10:10:41;;;;;;;4.80;3.50;;;;;;;-2.13;69.35;146802.59;5053356;28;20298;-62
2022/12/26 10:13:16;;;;;;;6.32;4.00;;;;;;;-2.31;68.93;146759.47;5045817;28;20056;-63
2022/12/26 10:15:48;;;;;;;6.03;4.40;;;;;;;-3.01;70.03;146586.94;5046220;28;20115;-63
2022/12/26 10:18:20;;;;;;;5.25;3.97;;;;;;;-2.58;70.32;146690.94;5046356;28;20057;-62
2022/12/26 10:20:46;;;;;;;5.88;4.15;;;;;;;-2.35;71.76;146748.00;5046967;28;20033;-62
2022/12/26 10:23:23;;;;;;;5.95;4.70;;;;;;;-2.72;70.66;146656.69;5052144;28;20338;-63
2022/12/26 10:25:58;;;;;;;7.35;4.90;;;;;;;-2.85;71.34;146624.97;5046104;28;20060;-61
2022/12/26 10:28:58;;;;;;;7.75;4.90;;;;;;;-2.88;71.71;146617.38;5046041;28;20021;-62
2022/12/26 10:31:32;;;;;;;6.85;4.97;;;;;;;-3.21;71.42;146536.22;5052803;28;20041;-63
2022/12/26 10:34:17;;;;;;;7.57;4.72;;;;;;;-3.18;72.06;146545.13;5056480;28;20029;-62
2022/12/26 10:37:08;;;;;;;7.10;4.72;;;;;;;-2.85;71.73;146624.97;5053559;28;20021;-63
2022/12/26 10:39:42;;;;;;;6.40;4.65;;;;;;;-3.07;71.33;146571.72;5045519;28;20289;-63
2022/12/26 10:42:17;;;;;;;8.43;5.18;;;;;;;-3.32;72.28;146510.88;5047440;28;20044;-64
2022/12/26 10:44:43;;;;;;;8.65;4.60;;;;;;;-3.36;72.76;146500.75;5063367;28;20056;-62
2022/12/26 10:47:19;;;;;;;5.80;4.35;;;;;;;-2.98;72.45;146593.28;5046416;28;20025;-62
2022/12/26 10:49:46;;;;;;;5.85;4.22;;;;;;;-2.87;72.73;146619.91;5060491;28;20044;-62
2022/12/26 10:52:14;;;;;;;7.20;4.85;;;;;;;-3.11;72.37;146561.56;5054468;28;20034;-61
2022/12/26 10:54:40;;;;;;;6.85;4.53;;;;;;;-3.20;73.26;146540.03;5051598;28;20027;-62
2022/12/26 10:57:07;;;;;;;8.05;4.50;;;;;;;-3.28;72.91;146519.75;5063374;28;20033;-63
2022/12/26 10:59:48;;;;;;;7.35;4.55;;;;;;;-3.08;72.39;146569.19;5045221;28;20027;-62
2022/12/26 11:02:26;;;;;;;5.03;4.38;;;;;;;-3.22;72.08;146534.97;5064160;28;20029;-62
2022/12/26 11:05:06;;;;;;;6.07;4.30;;;;;;;-3.11;72.25;146561.56;5048611;28;20052;-64
2022/12/26 11:07:39;;;;;;;4.70;3.72;;;;;;;-3.05;70.88;146576.81;5043820;28;20101;-63
2022/12/26 11:10:20;;;;;;;5.00;3.88;;;;;;;-3.09;70.82;146565.38;5054617;28;20025;-63
2022/12/26 11:12:54;;;;;;;5.80;4.28;;;;;;;-3.01;71.53;146585.69;5058298;28;20059;-63
2022/12/26 11:15:22;;;;;;;5.07;3.92;;;;;;;-3.01;71.51;146585.69;5062963;28;20101;-64
2022/12/26 11:17:51;;;;;;;6.13;4.55;;;;;;;-3.15;72.05;146551.44;5058130;28;20091;-63
2022/12/26 11:20:16;;;;;;;4.68;4.07;;;;;;;-3.08;71.66;146569.19;5049671;28;20371;-63
2022/12/26 11:22:43;;;;;;;4.32;3.83;;;;;;;-3.05;71.36;146576.81;5046291;28;20108;-62
2022/12/26 11:25:09;;;;;;;6.05;4.53;;;;;;;-3.01;71.69;146585.69;5047076;28;20044;-62
2022/12/26 11:27:36;;;;;;;7.82;3.95;;;;;;;-3.08;71.93;146569.19;5058599;28;20092;-62
2022/12/26 11:30:14;;;;;;;4.72;3.80;;;;;;;-3.12;71.53;146559.09;5057586;28;20217;-63
2022/12/26 11:32:46;;;;;;;5.35;3.88;;;;;;;-3.60;72.16;146439.94;5044774;28;20322;-63
2022/12/26 11:35:17;;;;;;;6.68;3.85;;;;;;;-3.37;72.30;146498.19;5063296;28;20041;-63
2022/12/26 11:37:45;;;;;;;5.37;4.30;;;;;;;-3.26;73.36;146523.53;5049993;28;20167;-64
2022/12/26 11:40:22;;;;;;;6.88;4.30;;;;;;;-3.19;72.09;146542.59;5054179;28;20446;-63
2022/12/26 11:42:54;;;;;;;7.68;4.55;;;;;;;-3.26;71.52;146524.84;5059521;28;20064;-62
2022/12/26 11:45:25;;;;;;;5.82;4.32;;;;;;;-3.12;71.66;146559.09;5052504;28;20120;-63
2022/12/26 11:47:55;;;;;;;5.30;4.07;;;;;;;-3.27;71.52;146522.28;5063610;28;20254;-63
2022/12/26 11:50:25;;;;;;;7.27;5.70;;;;;;;-3.35;72.09;146503.28;5051555;28;20320;-63
2022/12/26 11:52:57;;;;;;;5.63;4.38;;;;;;;-3.20;71.97;146538.78;5057459;28;20036;-63
2022/12/26 11:55:32;;;;;;;5.55;4.25;;;;;;;-3.37;71.80;146496.94;5052505;28;20191;-62
2022/12/26 11:58:07;;;;;;;4.82;3.63;;;;;;;-3.44;73.51;146479.19;5050723;28;20024;-62
2022/12/26 12:00:48;;;;;;;6.38;3.50;;;;;;;-3.68;73.62;146420.88;5051593;28;20110;-62
2022/12/26 12:03:29;;;;;;;4.93;4.13;;;;;;;-3.83;74.54;146384.16;5046455;28;20035;-63
2022/12/26 12:06:32;;;;;;;5.13;3.70;;;;;;;-3.73;75.24;146409.50;5055483;28;20237;-63
2022/12/26 12:09:13;;;;;;;9.13;4.57;;;;;;;-3.79;75.51;146393.00;5048075;28;20075;-63
2022/12/26 12:12:01;;;;;;;6.25;3.42;;;;;;;-3.70;75.08;146415.84;5061001;28;20028;-62
2022/12/26 12:14:47;;;;;;;5.45;3.92;;;;;;;-3.51;74.80;146462.72;5045973;28;20028;-62
2022/12/26 12:17:27;;;;;;;8.15;4.63;;;;;;;-3.37;74.61;146498.19;5053391;28;20094;-62
2022/12/26 12:20:07;;;;;;;4.32;3.88;;;;;;;-3.56;74.27;146451.31;5050771;28;20029;-63
2022/12/26 12:22:47;;;;;;;6.78;4.10;;;;;;;-3.59;74.47;146443.72;5054420;28;20033;-63
2022/12/26 12:25:43;;;;;;;6.55;4.68;;;;;;;-3.79;74.19;146394.31;5052543;28;20110;-62
2022/12/26 12:28:11;;;;;;;6.05;4.32;;;;;;;-3.50;74.32;146465.25;5057285;28;20033;-63
2022/12/26 12:30:46;;;;;;;5.55;3.90;;;;;;;-3.61;74.67;146437.38;5054689;28;20110;-63
2022/12/26 12:33:26;;;;;;;5.95;4.10;;;;;;;-3.41;74.33;146488.06;5051165;28;20064;-63
2022/12/26 12:36:11;;;;;;;5.13;4.03;;;;;;;-3.76;73.32;146401.91;5047257;28;20099;-62
2022/12/26 12:39:03;;;;;;;6.40;4.28;;;;;;;-3.59;73.93;146442.44;5046047;28;20041;-62
2022/12/26 12:41:41;;;;;;;;;;;;;;;-3.63;74.29;146433.56;5045913;28;20064;-63
2022/12/26 12:44:13;;;;;;;5.00;4.10;;;;;;;-3.78;73.65;146396.81;5060660;28;19967;-62
2022/12/26 12:46:49;;;;;;;6.03;4.18;;;;;;;-3.95;73.92;146355.00;5048402;28;20268;-62
2022/12/26 12:49:24;;;;;;;7.82;4.47;;;;;;;-3.68;73.22;146420.88;5053538;28;20028;-62
2022/12/26 12:51:56;;;;;;;8.18;4.78;;;;;;;-3.62;74.33;146434.81;5056340;28;20036;-62
2022/12/26 12:55:01;;;;;;;7.40;4.50;;;;;;;-3.60;73.91;146441.19;5045566;28;20041;-62
2022/12/26 12:57:32;;;;;;;6.07;4.15;;;;;;;-3.70;74.67;146417.09;5059672;28;20100;-62
2022/12/26 13:00:13;;;;;;;4.47;3.90;;;;;;;-3.71;74.55;146414.53;5043050;28;20301;-61
2022/12/26 13:02:42;;;;;;;7.23;4.57;;;;;;;-3.76;75.60;146400.59;5058592;28;20033;-62
2022/12/26 13:05:33;;;;;;;7.28;4.72;;;;;;;-3.99;75.24;146346.16;5060148;28;20418;-63
2022/12/26 13:08:25;;;;;;;7.65;4.97;;;;;;;-4.00;76.26;146343.59;5046728;28;20025;-62
2022/12/26 13:10:57;;;;;;;8.45;5.30;;;;;;;-4.16;75.85;146303.09;5057276;28;20040;-63
2022/12/26 13:13:34;;;;;;;7.28;5.20;;;;;;;-4.13;77.26;146310.69;5051672;28;20041;-61
2022/12/26 13:16:26;;;;;;;7.25;5.30;;;;;;;-4.26;77.26;146277.72;5050287;28;20052;-63
2022/12/26 13:18:59;;;;;;;9.75;5.55;;;;;;;-4.27;76.45;146275.22;5062744;28;20056;-61
2022/12/26 13:21:26;;;;;;;8.68;5.85;;;;;;;-4.14;76.67;146308.13;5060018;28;20041;-62
2022/12/26 13:26:54;;;;;;;7.90;6.05;;;;;;;-4.25;76.70;146281.53;5043058;28;20332;-62
2022/12/26 13:29:39;;;;;;;8.73;5.53;;;;;;;-4.17;77.93;146301.78;5062925;28;20341;-63
2022/12/26 13:32:22;;;;;;;9.65;5.07;;;;;;;-4.36;76.87;146254.94;5065117;28;20028;-61
2022/12/26 13:34:49;;;;;;;10.52;6.13;;;;;;;-4.19;76.73;146296.75;5052846;28;20270;-63
2022/12/26 13:37:36;;;;;;;5.90;4.72;;;;;;;-4.21;76.45;146291.66;5056641;28;20036;-62
2022/12/26 13:40:20;;;;;;;7.88;5.43;;;;;;;-4.43;77.86;146235.94;5066563;28;20044;-62
2022/12/26 13:45:42;;;;;;;7.20;4.78;;;;;;;-4.28;78.12;146273.94;5062076;28;20033;-62
2022/12/26 13:48:16;;;;;;;9.57;5.00;;;;;;;-4.25;77.71;146281.53;5046639;28;20148;-62
2022/12/26 13:50:45;;;;;;;6.20;4.30;;;;;;;-4.31;77.13;146266.34;5051923;28;20036;-62
2022/12/26 13:53:23;;;;;;;10.25;5.13;;;;;;;-4.31;78.09;146265.09;5046075;28;20045;-64